Airfield :
LOGIN :

Register | Disclaimer

   EN    FR    IT 

 










Legend :    VFR   Marginal VFR   IFR   Intensive IFR   Very Intensive IFR
Visi :
Ceiling :
>= 8 km
>= 3000ft
5 to 8 km
1000 to 3000 ft
1500m to 5 km
500 to 1000 ft
800 to 1500m
200 to 500 ft
< 800m
< 200 ft
Symbols :   Thunderstorms  Fog  Heavy snow  Heavy precipitations  Wind > 20 kt
SIGMETs :     Misc.  Thunderstorms  Icing  Turbulence  Mountain Waves  Volcanic Ashes







- Airport Elevation : 358 ft
- Download approach charts


EGTC - Cranfield

CURRENT METAR :
  • 251350Z 09010KT 070V160 9999 SCT042 24/15 Q1023

EXPIRED METARs :
  • 251320Z 11007KT 070V150 9999 SCT042 24/16 Q1023
  • 251250Z 09007KT 030V140 9999 SCT045 24/16 Q1023
  • 251220Z 10005KT 030V160 9999 SCT045 25/17 Q1023
  • 251150Z 07006KT 030V140 9999 SCT039 24/16 Q1024
  • 251120Z 12006KT 030V140 9999 SCT040 24/16 Q1024

TAF TAF EGTC
Valid from the 25 at 12:00 until the 25 at 18:00 UTC


251057Z 2512/2518 VRB03KT 9999 FEW040
BECMG 2512/2515 14010KT
No reported NOTAMs for that airfield.



MET'MAP, your aeronautical weather chart ! - Copyright ORBIFLY December 2007 - Disclaimer

ORBIFLY MET'MAP TEAM :

Programming & Development : Alexandra Zaïnal
Concept & Development : Baudouin d'Aumeries
Co-Development & Prog : Marc-Olivier Méhu
Technical & hardware support : Manuel Goepfert

Contact : metmap@orbifly.com




SOURCES & CREDITS :

   NOAA